This is the latest recevied weather packets stored in our database for station/object SQ5DN-4. If no packets are shown the sender has not sent any weather packets the latest 10 day(s).
| Time | Temp. | Humidity | Pressure | Rain* | Wind** | Luminosity | Snow |
|---|---|---|---|---|---|---|---|
| 1777788962 | 20° C | 42% | 1014 hPa | - | - | - | - |
| 1777788422 | 19.44° C | 43% | 1014 hPa | - | - | - | - |
| 1777787882 | 18.33° C | 47% | 1014 hPa | - | - | - | - |
| 1777787282 | 17.22° C | 51% | 1014 hPa | - | - | - | - |
| 1777786702 | 16.67° C | 55% | 1014 hPa | - | - | - | - |
| 1777786202 | 15.56° C | 57% | 1014 hPa | - | - | - | - |
| 1777785632 | 14.44° C | 58% | 1014 hPa | - | - | - | - |
| 1777785033 | 13.89° C | 60% | 1014 hPa | - | - | - | - |
| 1777784482 | 13.33° C | 60% | 1014 hPa | - | - | - | - |
| 1777783912 | 13.33° C | 61% | 1014 hPa | - | - | - | - |
| 1777783332 | 12.78° C | 62% | 1014 hPa | - | - | - | - |
| 1777782807 | 10.56° C | 67% | 1014 hPa | - | - | - | - |
| 1777782227 | 10° C | 67% | 1014 hPa | - | - | - | - |
| 1777781658 | 10° C | 67% | 1014 hPa | - | - | - | - |
| 1777781104 | 9.44° C | 71% | 1014 hPa | - | - | - | - |
| 1777780592 | 7.22° C | 77% | 1014 hPa | - | - | - | - |
| 1777780102 | 6.67° C | 79% | 1014 hPa | - | - | - | - |
| 1777779587 | 6.67° C | 79% | 1014 hPa | - | - | - | - |
| 1777779096 | 7.22° C | 79% | 1014 hPa | - | - | - | - |
| 1777778552 | 7.22° C | 78% | 1014 hPa | - | - | - | - |
| 1777777997 | 7.22° C | 76% | 1014 hPa | - | - | - | - |
| 1777777482 | 7.22° C | 76% | 1014 hPa | - | - | - | - |
| 1777776887 | 7.78° C | 76% | 1014 hPa | - | - | - | - |
| 1777776376 | 6.67° C | 78% | 1014 hPa | - | - | - | - |
| 1777775897 | 7.22° C | 76% | 1014 hPa | - | - | - | - |
* Rain since midnight (hover to see other rain measurements)
** Current wind speed in m/s (hover to see current wind gust speed)